Time;durP1;ratioP1;P1;durP2;ratioP2;P2;SDS_P1;SDS_P2;PMS_P1;PMS_P2;Temp;Humidity;BMP_temperature;BMP_pressure;BME280_temperature;BME280_humidity;BME280_pressure;Samples;Min_cycle;Max_cycle;Signal;HPM_P1;HPM_P2
2022/07/23 00:01:55;;;;;;;21.93;7.70;;;23.20;61.30;;;23.83;49.09;95212.91;5052213;28;20557;-61
2022/07/23 00:04:22;;;;;;;21.27;6.77;;;23.20;61.60;;;23.77;49.01;95211.91;5053028;28;20549;-61
2022/07/23 00:06:49;;;;;;;17.07;6.83;;;23.20;61.90;;;23.75;48.64;95213.97;5049957;28;20475;-61
2022/07/23 00:09:18;;;;;;;14.73;7.30;;;23.10;61.50;;;23.72;48.59;95214.41;5052281;28;20592;-62
2022/07/23 00:11:45;;;;;;;18.23;7.53;;;23.10;61.60;;;23.70;48.84;95219.16;5047988;28;20513;-58
2022/07/23 00:14:12;;;;;;;12.63;6.90;;;23.10;61.80;;;23.67;49.36;95219.59;5048076;28;20513;-62
2022/07/23 00:16:39;;;;;;;19.40;5.93;;;23.00;61.70;;;23.62;48.59;95218.38;5048049;28;20549;-59
2022/07/23 00:19:06;;;;;;;12.20;6.50;;;23.00;61.70;;;23.58;48.61;95219.84;5044789;28;20448;-61
2022/07/23 00:21:34;;;;;;;10.10;6.80;;;23.00;61.60;;;23.56;48.85;95224.59;5047210;28;20471;-60
2022/07/23 00:24:01;;;;;;;8.10;6.60;;;23.00;61.70;;;23.53;48.54;95216.97;5043432;28;21021;-60
2022/07/23 00:26:29;;;;;;;12.23;5.47;;;22.90;61.40;;;23.53;48.88;95219.66;5047755;28;20537;-61
2022/07/23 00:28:56;;;;;;;8.53;5.90;;;22.90;61.50;;;23.51;48.79;95221.72;5047982;28;20452;-62
2022/07/23 00:31:24;;;;;;;9.60;5.50;;;22.90;61.30;;;23.49;48.18;95218.44;5048375;28;20513;-58
2022/07/23 00:33:52;;;;;;;7.77;6.43;;;22.90;61.30;;;23.48;48.54;95226.69;5047756;28;20483;-58
2022/07/23 00:36:19;;;;;;;6.30;5.70;;;22.90;61.20;;;23.47;48.52;95223.19;5047515;28;20527;-60
2022/07/23 00:38:46;;;;;;;12.03;5.97;;;22.90;61.10;;;23.46;48.54;95226.91;5044402;28;20501;-57
2022/07/23 00:41:14;;;;;;;7.17;5.43;;;22.80;61.00;;;23.43;48.71;95220.09;5047170;28;20476;-60
2022/07/23 00:43:42;;;;;;;12.70;5.90;;;22.80;61.00;;;23.39;48.22;95223.41;5047399;28;20448;-58
2022/07/23 00:46:09;;;;;;;7.40;5.73;;;22.80;61.10;;;23.37;48.56;95225.47;5047100;28;20475;-59
2022/07/23 00:48:36;;;;;;;13.00;5.83;;;22.80;61.30;;;23.31;48.69;95216.41;5047224;28;20448;-59
2022/07/23 00:51:04;;;;;;;9.90;5.20;;;22.70;61.30;;;23.26;48.65;95225.09;5046892;28;20483;-59
2022/07/23 00:53:31;;;;;;;9.77;5.60;;;22.70;61.70;;;23.22;48.99;95215.81;5047117;28;20506;-58
2022/07/23 00:55:59;;;;;;;8.20;5.90;;;22.60;61.50;;;23.18;48.54;95222.63;5047222;28;20557;-60
2022/07/23 00:58:26;;;;;;;6.87;5.90;;;22.60;61.60;;;23.14;49.22;95224.09;5047257;28;20761;-59
2022/07/23 01:00:55;;;;;;;12.30;6.80;;;22.60;62.00;;;23.09;49.20;95219.34;5047223;28;20472;-60
2022/07/23 01:03:23;;;;;;;5.73;5.07;;;22.50;62.00;;;23.06;48.93;95214.38;5051786;28;20455;-59
2022/07/23 01:05:50;;;;;;;7.90;5.87;;;22.50;62.30;;;23.01;49.53;95222.22;5050859;28;20950;-60
2022/07/23 01:08:18;;;;;;;10.10;6.83;;;22.40;62.00;;;22.97;49.19;95220.97;5048751;28;20598;-59
2022/07/23 01:10:45;;;;;;;16.90;6.17;;;22.40;62.50;;;22.92;49.63;95221.59;5047196;28;20486;-61
2022/07/23 01:13:12;;;;;;;9.00;6.13;;;22.40;62.40;;;22.91;49.46;95222.66;5048424;28;20982;-59
2022/07/23 01:15:39;;;;;;;7.40;6.60;;;22.30;62.30;;;22.88;49.44;95233.81;5048706;28;20495;-58
2022/07/23 01:18:08;;;;;;;9.63;6.03;;;22.30;62.30;;;22.86;49.51;95222.44;5046124;28;20462;-60
2022/07/23 01:20:35;;;;;;;15.33;5.87;;;22.30;63.10;;;22.84;49.38;95221.84;5052474;28;20452;-58
2022/07/23 01:23:04;;;;;;;10.50;5.60;;;22.30;62.60;;;22.80;49.88;95225.94;5048885;28;20528;-62
2022/07/23 01:25:31;;;;;;;7.60;5.57;;;22.20;63.00;;;22.77;49.54;95221.00;5050072;28;20464;-60
2022/07/23 01:27:59;;;;;;;10.83;5.60;;;22.20;62.90;;;22.74;49.98;95222.25;5045778;28;20703;-60
2022/07/23 01:30:26;;;;;;;10.80;6.90;;;22.20;63.30;;;22.72;49.73;95223.50;5047034;28;20527;-60
2022/07/23 01:32:53;;;;;;;8.50;5.47;;;22.10;63.30;;;22.68;50.63;95217.72;5048454;28;20522;-61
2022/07/23 01:35:20;;;;;;;5.83;5.27;;;22.10;63.60;;;22.66;50.64;95218.94;5051110;28;20502;-62
2022/07/23 01:37:48;;;;;;;7.83;6.53;;;22.10;64.00;;;22.63;50.25;95225.53;5047600;28;20452;-59
2022/07/23 01:40:16;;;;;;;11.20;5.93;;;22.00;64.00;;;22.61;50.60;95216.06;5050432;28;20466;-58
2022/07/23 01:42:43;;;;;;;8.87;6.13;;;22.00;64.00;;;22.60;50.64;95220.59;5048251;28;21154;-61
2022/07/23 01:45:11;;;;;;;15.23;7.47;;;22.00;64.20;;;22.58;50.58;95211.13;5050038;28;20458;-57
2022/07/23 01:47:38;;;;;;;14.20;7.20;;;22.00;64.70;;;22.55;51.12;95207.81;5048544;28;20943;-59
2022/07/23 01:50:07;;;;;;;12.30;8.00;;;22.00;64.80;;;22.51;50.76;95211.94;5049204;28;20514;-60
2022/07/23 01:52:34;;;;;;;15.20;8.00;;;22.00;64.70;;;22.46;50.86;95222.44;5045943;28;20530;-59
2022/07/23 01:55:02;;;;;;;8.13;6.00;;;21.90;65.60;;;22.40;51.04;95220.56;5049080;28;20460;-59
2022/07/23 01:57:30;;;;;;;11.40;8.17;;;21.90;65.20;;;22.34;51.44;95216.06;5049831;28;20552;-58
2022/07/23 01:59:58;;;;;;;12.30;7.07;;;21.80;65.10;;;22.30;51.16;95217.47;5051826;28;20955;-60
2022/07/23 02:02:25;;;;;;;11.53;7.17;;;21.70;65.40;;;22.23;51.71;95214.78;5047007;28;20596;-60
2022/07/23 02:04:52;;;;;;;10.77;7.50;;;21.70;65.90;;;22.18;51.64;95218.06;5047321;28;20525;-60
2022/07/23 02:07:19;;;;;;;18.47;6.67;;;21.70;66.10;;;22.13;51.84;95215.16;5049006;28;20506;-57
2022/07/23 02:09:46;;;;;;;9.70;6.40;;;21.60;66.10;;;22.09;52.07;95213.94;5042726;28;20483;-59
2022/07/23 02:12:13;;;;;;;9.50;6.30;;;21.60;66.50;;;22.06;52.19;95214.34;5045314;28;20479;-62
2022/07/23 02:14:42;;;;;;;7.47;6.37;;;21.50;66.60;;;22.04;52.01;95219.06;5051704;28;20514;-57
2022/07/23 02:17:09;;;;;;;23.27;7.20;;;21.50;66.50;;;22.02;52.09;95221.94;5049908;28;20487;-60
2022/07/23 02:19:36;;;;;;;11.97;6.70;;;21.50;66.60;;;22.00;52.17;95223.19;5051526;28;20913;-61
2022/07/23 02:22:03;;;;;;;10.33;6.77;;;21.50;66.80;;;21.97;52.08;95215.56;5046271;28;20488;-62
2022/07/23 02:24:31;;;;;;;12.73;6.27;;;21.40;66.80;;;21.94;52.14;95215.97;5047986;28;20464;-60
2022/07/23 02:26:58;;;;;;;15.30;6.63;;;21.40;66.80;;;21.92;52.44;95212.63;5052023;28;20509;-59
2022/07/23 02:29:25;;;;;;;11.93;6.47;;;21.40;67.20;;;21.89;52.14;95215.72;5048076;28;20509;-58
2022/07/23 02:31:54;;;;;;;14.27;7.83;;;21.40;66.80;;;21.85;52.61;95223.34;5046166;28;20942;-58
2022/07/23 02:34:21;;;;;;;20.83;7.60;;;21.30;67.30;;;21.79;52.36;95213.44;5050381;28;20460;-61
2022/07/23 02:36:48;;;;;;;10.30;7.80;;;21.30;67.20;;;21.76;52.68;95217.31;5044937;28;20491;-61
2022/07/23 02:39:18;;;;;;;10.93;7.43;;;21.20;67.70;;;21.72;52.57;95231.31;5049784;28;20471;-59
2022/07/23 02:41:45;;;;;;;8.73;6.27;;;21.20;67.70;;;21.67;52.56;95227.41;5045814;28;20507;-58
2022/07/23 02:44:12;;;;;;;9.03;6.27;;;21.10;67.80;;;21.63;52.71;95215.44;5046541;28;20460;-60
2022/07/23 02:46:39;;;;;;;7.60;6.77;;;21.10;67.80;;;21.60;52.92;95218.53;5046263;28;20865;-59
2022/07/23 02:49:08;;;;;;;8.47;5.57;;;21.10;67.90;;;21.57;52.69;95221.59;5046875;28;21031;-61
2022/07/23 02:51:35;;;;;;;14.20;6.43;;;21.00;67.70;;;21.52;52.64;95220.53;5045538;28;21043;-60
2022/07/23 02:54:03;;;;;;;11.97;6.40;;;21.00;67.70;;;21.52;53.27;95229.41;5047749;28;20451;-61
2022/07/23 02:56:30;;;;;;;15.23;7.03;;;20.90;68.30;;;21.48;53.18;95233.47;5050495;28;20494;-59
2022/07/23 02:58:57;;;;;;;12.13;6.93;;;20.90;68.60;;;21.44;53.31;95237.56;5048219;28;20532;-60
2022/07/23 03:01:25;;;;;;;8.83;6.90;;;20.90;68.70;;;21.42;53.32;95240.41;5052580;28;20479;-58
2022/07/23 03:03:52;;;;;;;16.20;6.80;;;20.90;68.60;;;21.40;53.10;95245.16;5047704;28;20478;-60
2022/07/23 03:06:20;;;;;;;8.40;6.43;;;20.90;68.50;;;21.38;53.48;95244.53;5048204;28;20483;-61
2022/07/23 03:08:48;;;;;;;12.80;6.80;;;20.80;68.80;;;21.35;53.20;95249.44;5049629;28;20467;-61
2022/07/23 03:11:15;;;;;;;8.80;6.30;;;20.80;68.70;;;21.32;53.09;95245.34;5053281;28;20544;-58
2022/07/23 03:13:42;;;;;;;8.70;6.17;;;20.80;68.80;;;21.31;53.13;95249.03;5046946;28;20513;-59
2022/07/23 03:16:09;;;;;;;11.07;6.70;;;20.80;68.80;;;21.29;53.58;95251.06;5043682;28;20499;-59
2022/07/23 03:18:36;;;;;;;8.90;6.87;;;20.80;69.50;;;21.26;53.44;95263.00;5044573;28;21238;-61
2022/07/23 03:21:04;;;;;;;10.43;7.20;;;20.70;69.10;;;21.24;53.57;95256.16;5049166;28;21791;-57
2022/07/23 03:23:33;;;;;;;9.60;8.03;;;20.70;69.40;;;21.22;53.89;95258.22;5049693;28;20459;-59
2022/07/23 03:26:00;;;;;;;15.33;9.03;;;20.70;69.60;;;21.21;53.78;95253.88;5040517;28;20476;-60
2022/07/23 03:28:27;;;;;;;13.20;9.47;;;20.70;69.60;;;21.20;54.03;95260.28;5045127;28;20451;-58
2022/07/23 03:30:54;;;;;;;25.47;9.87;;;20.60;69.60;;;21.17;53.73;95255.31;5044169;28;21004;-58
2022/07/23 03:33:21;;;;;;;12.23;10.03;;;20.70;69.80;;;21.16;53.91;95259.81;5050142;28;20532;-59
2022/07/23 03:35:49;;;;;;;13.60;8.97;;;20.60;69.90;;;21.13;53.93;95269.09;5047462;28;20996;-60
2022/07/23 03:38:16;;;;;;;23.17;8.73;;;20.60;70.50;;;21.13;54.21;95265.56;5045194;28;20543;-60
2022/07/23 03:40:45;;;;;;;16.80;6.50;;;20.60;70.60;;;21.13;53.99;95265.56;5046976;28;20564;-60
2022/07/23 03:43:12;;;;;;;8.90;6.70;;;20.60;70.60;;;21.12;54.14;95267.44;5048935;28;20817;-58
2022/07/23 03:45:39;;;;;;;10.27;6.50;;;20.60;70.50;;;21.12;54.58;95263.94;5048809;28;20479;-60
2022/07/23 03:48:07;;;;;;;12.83;6.90;;;20.60;70.60;;;21.12;54.24;95267.44;5043946;28;20976;-57
2022/07/23 03:50:34;;;;;;;8.70;6.70;;;20.60;70.80;;;21.12;54.24;95264.75;5047504;28;20494;-58
2022/07/23 03:53:02;;;;;;;13.03;7.00;;;20.60;70.90;;;21.13;54.40;95258.38;5044325;28;20551;-60
2022/07/23 03:55:29;;;;;;;10.70;6.73;;;20.60;71.00;;;21.17;54.41;95271.38;5041966;28;20456;-58
2022/07/23 03:57:58;;;;;;;10.60;6.73;;;20.60;71.20;;;21.21;54.51;95267.25;5045264;28;20468;-60
2022/07/23 04:00:25;;;;;;;11.73;6.63;;;20.70;71.60;;;21.23;54.46;95270.59;5055624;28;20455;-60
2022/07/23 04:02:52;;;;;;;10.20;6.17;;;20.70;71.40;;;21.26;54.55;95273.69;5047136;28;20468;-59
2022/07/23 04:05:19;;;;;;;13.13;6.63;;;20.70;71.10;;;21.30;54.50;95268.75;5050588;28;20995;-58
2022/07/23 04:07:47;;;;;;;22.27;8.30;;;20.70;71.10;;;21.32;54.36;95264.06;5049424;28;20463;-57
2022/07/23 04:10:14;;;;;;;15.43;7.00;;;20.80;71.00;;;21.35;54.34;95273.53;5049294;28;21128;-59
2022/07/23 04:12:41;;;;;;;7.97;6.27;;;20.80;71.20;;;21.38;54.31;95271.31;5054377;28;20961;-58
2022/07/23 04:15:10;;;;;;;14.10;6.33;;;20.90;71.00;;;21.41;54.42;95268.22;5047155;28;20529;-61
2022/07/23 04:17:38;;;;;;;9.73;6.40;;;20.90;71.40;;;21.45;54.41;95277.50;5047259;28;20491;-58
2022/07/23 04:20:06;;;;;;;8.80;6.40;;;20.90;71.20;;;21.49;54.35;95276.13;5056504;28;20460;-60
2022/07/23 04:22:33;;;;;;;10.47;6.57;;;20.90;71.30;;;21.55;54.20;95281.69;5054233;28;20555;-59
2022/07/23 04:25:01;;;;;;;12.20;6.80;;;21.00;71.10;;;21.59;54.28;95281.09;5048584;28;20459;-57
2022/07/23 04:27:28;;;;;;;8.43;7.53;;;21.10;71.10;;;21.64;54.01;95275.16;5045620;28;20488;-57
2022/07/23 04:29:55;;;;;;;12.40;6.40;;;21.10;70.80;;;21.68;54.08;95279.09;5051216;28;20452;-57
2022/07/23 04:32:24;;;;;;;9.93;6.43;;;21.10;70.80;;;21.72;54.18;95283.03;5049501;28;20472;-60
2022/07/23 04:34:51;;;;;;;12.17;6.57;;;21.10;70.90;;;21.75;53.94;95276.44;5049799;28;20584;-59
2022/07/23 04:37:18;;;;;;;14.10;5.90;;;21.20;70.90;;;21.78;53.97;95284.91;5046916;28;20537;-58
2022/07/23 04:39:45;;;;;;;8.87;6.00;;;21.30;70.90;;;21.80;53.66;95280.19;5050295;28;20455;-57
2022/07/23 04:42:13;;;;;;;19.40;7.33;;;21.30;70.60;;;21.85;53.78;95290.28;5054815;28;20498;-60
2022/07/23 04:44:40;;;;;;;7.23;6.10;;;21.30;70.50;;;21.89;53.76;95288.03;5049353;28;20464;-60
2022/07/23 04:47:07;;;;;;;17.60;6.93;;;21.30;70.50;;;21.90;53.56;95278.97;5045546;28;20484;-61
2022/07/23 04:49:36;;;;;;;18.03;7.10;;;21.40;71.50;;;21.96;53.85;95278.19;5046379;28;20464;-58
2022/07/23 04:52:05;;;;;;;14.20;6.27;;;21.40;70.90;;;22.02;53.72;95288.91;5047193;28;20483;-60
2022/07/23 04:54:32;;;;;;;10.00;6.90;;;21.40;70.40;;;22.09;53.42;95288.09;5047022;28;21034;-59
2022/07/23 04:56:59;;;;;;;16.97;6.60;;;21.50;70.40;;;22.15;53.00;95290.81;5043679;28;20495;-60
2022/07/23 04:59:27;;;;;;;7.93;6.73;;;21.60;70.10;;;22.23;53.07;95297.00;5046709;28;20447;-58
2022/07/23 05:01:54;;;;;;;13.03;7.23;;;21.60;70.20;;;22.31;53.14;95289.66;5046752;28;20984;-57
2022/07/23 05:04:21;;;;;;;12.40;7.50;;;21.70;70.20;;;22.38;53.43;95286.97;5046225;28;20521;-61
2022/07/23 05:06:50;;;;;;;11.23;6.80;;;21.80;70.20;;;22.46;53.18;95289.44;5047402;28;20472;-57
2022/07/23 05:09:17;;;;;;;7.30;6.60;;;21.90;70.20;;;22.51;53.08;95286.16;5046402;28;20466;-61
2022/07/23 05:11:44;;;;;;;14.63;6.10;;;21.90;69.70;;;22.56;52.63;95289.91;5045619;28;20479;-59
2022/07/23 05:14:12;;;;;;;9.20;6.90;;;22.00;69.80;;;22.68;52.77;95291.97;5047192;28;20452;-60
2022/07/23 05:16:39;;;;;;;9.27;7.10;;;22.10;69.90;;;22.80;52.69;95292.19;5044603;28;20491;-58
2022/07/23 05:19:06;;;;;;;24.23;7.47;;;22.20;70.00;;;22.94;52.50;95287.66;5043369;28;20470;-58
2022/07/23 05:21:34;;;;;;;9.10;7.70;;;22.30;69.50;;;23.05;52.16;95290.53;5046966;28;20472;-58
2022/07/23 05:24:02;;;;;;;9.13;6.83;;;22.40;69.20;;;23.19;52.11;95294.06;5046599;28;20972;-62
2022/07/23 05:26:29;;;;;;;19.60;8.33;;;22.60;69.40;;;23.34;52.09;95290.31;5046755;28;20487;-61
2022/07/23 05:28:56;;;;;;;13.03;7.90;;;22.70;68.50;;;;;;5046969;28;20459;-58
2022/07/23 05:31:24;;;;;;;15.60;7.37;;;22.80;67.90;;;23.60;51.12;95300.19;5048344;28;20471;-60
2022/07/23 05:33:51;;;;;;;12.57;7.13;;;23.00;67.70;;;23.73;50.70;95305.50;5045330;28;20464;-62
2022/07/23 05:36:18;;;;;;;17.53;8.10;;;23.10;67.70;;;23.92;50.53;95298.47;5048493;28;20571;-62
2022/07/23 05:38:45;;;;;;;7.90;7.10;;;23.30;67.40;;;24.16;50.99;95304.13;5044528;28;20833;-59
2022/07/23 05:41:14;;;;;;;14.73;6.80;;;23.40;67.00;;;24.40;50.32;95294.50;5047024;28;20487;-62
2022/07/23 05:43:41;;;;;;;10.80;7.30;;;23.70;66.60;;;24.60;49.64;95291.72;5047371;28;20844;-59
2022/07/23 05:46:08;;;;;;;12.83;7.50;;;23.90;66.10;;;24.83;49.55;95298.38;5041548;28;20829;-65
2022/07/23 05:48:35;;;;;;;10.50;7.27;;;24.10;65.40;;;25.06;49.50;95298.59;5047568;28;21041;-58
2022/07/23 05:51:06;;;;;;;23.77;7.87;;;24.30;65.30;;;25.31;48.29;95295.09;5046769;28;20918;-61
2022/07/23 05:53:33;;;;;;;15.53;7.20;;;24.50;64.70;;;25.54;47.80;95297.16;5046307;28;20439;-58
2022/07/23 05:56:00;;;;;;;19.40;7.40;;;24.80;63.90;;;25.74;47.76;95299.63;5048487;28;21051;-58
2022/07/23 05:58:29;;;;;;;23.70;8.90;;;25.00;63.40;;;25.96;47.65;95291.09;5041820;28;20482;-62
2022/07/23 06:00:56;;;;;;;12.87;8.40;;;25.20;62.70;;;26.15;46.96;95291.94;5044790;28;20520;-61
2022/07/23 06:03:23;;;;;;;14.57;8.80;;;25.40;62.10;;;26.35;46.27;95290.84;5045191;28;20533;-61
2022/07/23 06:05:50;;;;;;;12.50;8.13;;;25.60;61.20;;;26.52;46.24;95291.03;5045704;28;20479;-61
2022/07/23 06:08:18;;;;;;;14.47;9.53;;;25.70;60.60;;;26.68;45.45;95282.31;5048298;28;20509;-60
2022/07/23 06:10:45;;;;;;;17.07;9.37;;;25.90;60.30;;;26.83;45.75;95285.41;5045188;28;20475;-57
2022/07/23 06:13:12;;;;;;;15.10;9.40;;;26.10;59.80;;;26.99;45.49;95283.09;5044441;28;20464;-59
2022/07/23 06:15:41;;;;;;;21.20;9.70;;;26.20;59.40;;;27.19;45.05;95291.66;5045919;28;20483;-62
2022/07/23 06:18:08;;;;;;;18.73;9.97;;;26.40;59.50;;;27.35;44.83;95286.66;5042388;28;20487;-59
2022/07/23 06:20:35;;;;;;;18.60;9.87;;;26.60;59.20;;;27.54;44.39;95295.44;5045225;28;20467;-62
2022/07/23 06:23:02;;;;;;;16.07;9.10;;;26.70;59.10;;;27.76;44.50;95282.13;5044483;28;20452;-58
2022/07/23 06:25:29;;;;;;;18.90;9.00;;;26.90;58.80;;;28.01;44.58;95289.16;5044669;28;20506;-60
2022/07/23 06:27:57;;;;;;;16.07;8.80;;;27.20;58.70;;;28.24;43.89;95291.81;5043703;28;20517;-58
2022/07/23 06:30:24;;;;;;;22.27;8.17;;;27.40;58.40;;;28.47;43.43;95290.06;5043709;28;20459;-58
2022/07/23 06:32:52;;;;;;;16.93;8.87;;;27.60;57.60;;;28.70;43.08;95285.66;5041393;28;20447;-58
2022/07/23 06:35:19;;;;;;;13.97;8.10;;;27.80;57.20;;;28.91;42.98;95282.22;5042309;28;20540;-59
2022/07/23 06:37:47;;;;;;;19.73;8.10;;;28.10;57.00;;;29.13;42.23;95282.31;5039347;28;20487;-61
2022/07/23 06:40:14;;;;;;;23.70;7.73;;;28.30;56.40;;;29.34;42.03;95285.34;5042540;28;20451;-60
2022/07/23 06:42:41;;;;;;;17.90;8.57;;;28.50;56.10;;;29.54;41.49;95282.13;5046118;28;20483;-58
2022/07/23 06:45:09;;;;;;;19.37;9.20;;;28.70;55.50;;;29.71;41.09;95281.28;5047253;28;20463;-59
2022/07/23 06:47:36;;;;;;;20.20;9.77;;;28.90;55.10;;;29.86;41.42;95281.50;5045014;28;20478;-59
2022/07/23 06:50:06;;;;;;;23.27;8.80;;;29.00;54.90;;;29.95;40.47;95279.19;5048177;28;20468;-60
2022/07/23 06:52:33;;;;;;;12.70;7.80;;;29.10;54.20;;;30.02;40.73;95283.34;5043362;28;20491;-60
2022/07/23 06:55:00;;;;;;;14.13;8.27;;;29.20;53.70;;;30.17;40.16;95282.72;5043907;28;20516;-62
2022/07/23 06:57:28;;;;;;;16.27;8.10;;;29.30;53.70;;;30.32;39.94;95278.53;5045048;28;20564;-59
2022/07/23 06:59:55;;;;;;;18.77;9.00;;;29.50;53.60;;;30.45;39.94;95278.16;5043427;28;20197;-59
2022/07/23 07:02:22;;;;;;;13.60;8.03;;;29.60;53.30;;;30.61;39.83;95275.59;5045482;28;20646;-58
2022/07/23 07:04:50;;;;;;;20.73;7.73;;;29.70;53.10;;;30.79;39.74;95266.28;5047051;28;20542;-57
2022/07/23 07:07:18;;;;;;;16.53;8.07;;;29.90;52.90;;;30.98;39.62;95275.69;5043271;28;20365;-60
2022/07/23 07:09:46;;;;;;;14.27;8.50;;;30.10;52.60;;;31.18;39.12;95279.66;5047262;28;20197;-64
2022/07/23 07:12:13;;;;;;;12.30;8.63;;;30.30;52.30;;;31.34;38.84;95269.72;5049199;28;20642;-63
2022/07/23 07:14:40;;;;;;;14.47;8.10;;;30.40;51.70;;;31.44;38.28;95273.34;5039269;28;20266;-60
2022/07/23 07:17:07;;;;;;;23.30;8.23;;;30.60;51.20;;;31.54;38.11;95267.19;5045334;28;20291;-62
2022/07/23 07:19:35;;;;;;;13.57;7.80;;;30.70;51.00;;;31.71;37.91;95272.41;5044334;28;20208;-61
2022/07/23 07:22:02;;;;;;;16.57;6.70;;;30.80;50.70;;;31.86;37.24;95268.97;5045101;28;20232;-61
2022/07/23 07:24:31;;;;;;;15.97;8.97;;;31.00;50.30;;;31.98;37.05;95266.03;5044676;28;20201;-59
2022/07/23 07:26:58;;;;;;;11.87;8.03;;;31.10;49.80;;;32.03;37.23;95257.09;5044795;28;20213;-60
2022/07/23 07:29:25;;;;;;;9.50;7.23;;;31.10;49.40;;;32.16;36.84;95257.44;5044920;28;20205;-59
2022/07/23 07:31:52;;;;;;;12.95;8.05;;;31.30;49.60;;;32.36;36.63;95264.00;5043372;28;20220;-58
2022/07/23 07:34:19;;;;;;;15.30;8.67;;;31.50;49.30;;;32.53;36.42;95248.28;5049566;28;20626;-58
2022/07/23 07:36:47;;;;;;;10.68;7.85;;;31.60;48.80;;;32.60;36.14;95249.94;5048412;28;20225;-62
2022/07/23 07:39:14;;;;;;;14.13;7.95;;;31.70;48.30;;;32.65;36.09;95252.69;5048680;28;20570;-57
2022/07/23 07:41:43;;;;;;;34.22;8.90;;;31.80;48.30;;;32.81;36.04;95251.63;5048499;28;20225;-57
2022/07/23 07:44:10;;;;;;;13.60;7.22;;;31.90;48.40;;;33.02;35.81;95246.16;5047729;28;20292;-62
2022/07/23 07:46:37;;;;;;;10.73;7.20;;;32.10;48.40;;;33.30;35.71;95252.19;5049850;28;20220;-60
2022/07/23 07:49:04;;;;;;;24.05;8.68;;;32.30;48.30;;;33.51;35.08;95255.66;5048433;28;20205;-62
2022/07/23 07:51:32;;;;;;;20.75;7.65;;;32.50;47.70;;;33.63;34.81;95244.47;5048842;28;20217;-57
2022/07/23 07:53:59;;;;;;;14.52;7.65;;;32.70;47.30;;;33.80;35.22;95253.16;5051512;28;20785;-57
2022/07/23 07:56:27;;;;;;;12.68;7.32;;;32.90;47.20;;;34.05;34.46;95246.00;5050807;28;20212;-57
2022/07/23 07:58:55;;;;;;;19.35;7.70;;;33.10;47.00;;;34.29;33.80;95255.19;5053192;28;20264;-61
2022/07/23 08:01:22;;;;;;;14.07;8.00;;;33.30;46.40;;;34.46;33.80;95251.28;5044199;28;20279;-60
2022/07/23 08:03:49;;;;;;;15.15;7.22;;;33.50;45.90;;;34.59;33.71;95247.91;5046257;28;20231;-61
2022/07/23 08:06:17;;;;;;;10.73;7.43;;;33.60;45.50;;;34.79;33.11;95248.91;5048826;28;20228;-62
2022/07/23 08:08:44;;;;;;;20.15;7.47;;;33.80;45.30;;;34.96;32.85;95249.31;5047763;28;20266;-62
2022/07/23 08:11:11;;;;;;;16.52;7.95;;;34.00;45.00;;;35.09;32.48;95244.28;5045866;28;20217;-58
2022/07/23 08:13:38;;;;;;;39.05;11.90;;;34.20;44.60;;;35.08;32.00;95242.69;5048418;28;20278;-62
2022/07/23 08:16:08;;;;;;;13.40;7.53;;;34.20;44.20;;;35.08;32.20;95240.75;5048852;28;20520;-60
2022/07/23 08:18:35;;;;;;;23.17;8.52;;;34.20;44.10;;;35.07;31.89;95246.50;5049057;28;20290;-58
2022/07/23 08:21:04;;;;;;;14.88;9.30;;;34.20;43.90;;;35.07;32.15;95241.84;5049324;28;20845;-57
2022/07/23 08:23:31;;;;;;;18.95;7.75;;;34.20;43.70;;;35.13;32.43;95242.63;5048548;28;20189;-57
2022/07/23 08:25:59;;;;;;;8.23;7.38;;;34.30;43.70;;;35.23;32.95;95237.06;5047208;28;20224;-58
2022/07/23 08:28:26;;;;;;;10.38;8.07;;;34.40;44.00;;;35.46;32.63;95240.16;5053290;28;20201;-62
2022/07/23 08:30:53;;;;;;;12.07;8.30;;;34.50;44.10;;;35.76;31.69;95232.72;5045949;28;20219;-61
2022/07/23 08:33:22;;;;;;;17.60;8.68;;;34.80;43.60;;;35.88;31.33;95230.41;5047115;28;20674;-58
2022/07/23 08:35:52;;;;;;;26.50;8.52;;;34.90;43.30;;;36.12;31.37;95232.34;5047404;28;20282;-60
2022/07/23 08:38:20;;;;;;;11.35;7.30;;;35.10;43.40;;;36.40;31.88;95233.34;5048457;28;20225;-61
2022/07/23 08:40:49;;;;;;;15.63;8.43;;;35.40;42.90;;;36.67;30.77;95227.22;5041584;28;20267;-57
2022/07/23 08:43:19;;;;;;;16.83;7.40;;;35.70;42.70;;;36.92;29.37;95223.28;5041330;28;20197;-57
2022/07/23 08:45:49;;;;;;;21.20;9.00;;;35.90;40.70;;;37.11;30.93;95233.41;5047863;28;20225;-61
2022/07/23 08:48:17;;;;;;;17.17;7.47;;;36.20;41.90;;;37.31;30.28;95227.56;5047942;28;20266;-61
2022/07/23 08:50:46;;;;;;;15.35;7.88;;;36.30;41.30;;;37.41;29.67;95223.03;5047027;28;20951;-61
2022/07/23 08:53:14;;;;;;;12.40;8.20;;;36.50;41.00;;;37.49;29.75;95219.56;5047372;28;20635;-59
2022/07/23 08:55:41;;;;;;;13.45;7.60;;;36.50;40.90;;;37.60;29.86;95218.28;5046319;28;20217;-56
2022/07/23 08:58:08;;;;;;;20.17;8.05;;;36.70;40.80;;;37.74;29.57;95220.22;5047813;28;20236;-59
2022/07/23 09:00:35;;;;;;;22.70;6.85;;;36.80;40.60;;;37.84;29.09;95212.59;5046986;28;20278;-59
2022/07/23 09:03:02;;;;;;;10.90;7.28;;;36.90;39.90;;;37.99;29.01;95219.72;5046121;28;20890;-58
2022/07/23 09:05:30;;;;;;;8.95;6.53;;;37.10;39.90;;;38.20;28.94;95216.56;5047448;28;20538;-63
2022/07/23 09:08:12;;;;;;;14.68;7.28;;;37.20;40.20;;;38.47;28.10;95212.13;5049463;28;20201;-57
2022/07/23 09:10:54;;;;;;;17.35;8.35;;;37.50;38.90;;;38.74;28.19;95209.31;5044511;28;20662;-62
2022/07/23 09:13:33;;;;;;;20.23;7.65;;;37.80;38.80;;;38.97;28.12;95214.03;5042017;28;20189;-57
2022/07/23 09:16:03;;;;;;;16.05;8.23;;;37.90;38.70;;;39.15;27.91;95213.06;5043234;28;20217;-59
2022/07/23 09:18:39;;;;;;;20.08;10.02;;;38.20;38.60;;;39.25;28.01;95217.47;5045783;28;20274;-61
2022/07/23 09:21:19;;;;;;;15.23;6.60;;;38.30;38.60;;;39.28;27.46;95218.78;5047192;28;20267;-61
2022/07/23 09:23:50;;;;;;;15.70;7.68;;;38.30;37.70;;;39.33;26.86;95213.94;5045594;28;20205;-60
2022/07/23 09:26:33;;;;;;;16.75;7.45;;;38.40;37.50;;;39.48;26.79;95209.19;5046878;28;20229;-59
2022/07/23 09:29:04;;;;;;;13.68;6.78;;;38.50;37.40;;;39.67;26.92;95204.25;5043118;28;20635;-60
2022/07/23 09:31:42;;;;;;;15.85;6.85;;;38.60;37.60;;;39.86;26.27;95217.78;5045790;28;20221;-60
2022/07/23 09:34:14;;;;;;;17.75;7.43;;;38.80;37.00;;;40.07;26.41;95211.72;5046987;28;20685;-61
2022/07/23 09:36:41;;;;;;;15.90;7.85;;;39.00;37.10;;;40.24;26.66;95211.75;5044828;28;20613;-58
2022/07/23 09:39:10;;;;;;;21.92;7.20;;;39.20;36.70;;;40.24;26.31;95206.25;5046465;28;20232;-63
2022/07/23 09:41:40;;;;;;;16.98;7.13;;;39.30;36.50;;;40.23;26.31;95201.06;5047174;28;20228;-60
2022/07/23 09:44:10;;;;;;;17.85;6.60;;;39.30;36.30;;;40.31;26.88;95187.28;5046123;28;20189;-59
2022/07/23 09:46:39;;;;;;;8.80;6.50;;;39.30;36.50;;;40.47;26.42;95197.88;5046476;28;20304;-60
2022/07/23 09:49:19;;;;;;;9.32;6.05;;;39.50;36.00;;;40.59;26.02;95194.47;5046568;28;20205;-61
2022/07/23 09:51:49;;;;;;;18.38;6.95;;;39.60;35.60;;;40.59;25.69;95184.25;5046418;28;20224;-59
2022/07/23 09:54:30;;;;;;;12.73;7.30;;;39.70;35.00;;;40.60;24.78;95185.88;5043407;28;20200;-61
2022/07/23 09:56:58;;;;;;;13.25;6.07;;;39.70;34.80;;;40.66;25.37;95181.81;5045757;28;20235;-59
2022/07/23 09:59:27;;;;;;;10.20;6.22;;;39.70;34.50;;;40.72;25.46;95187.97;5046681;28;20298;-62
2022/07/23 10:01:56;;;;;;;10.18;5.57;;;39.80;34.80;;;40.80;24.80;95184.41;5042817;28;20278;-63
2022/07/23 10:04:24;;;;;;;20.00;7.68;;;39.80;34.00;;;40.78;23.95;95172.88;5046653;28;20578;-60
2022/07/23 10:06:54;;;;;;;14.85;6.30;;;39.90;33.20;;;40.58;24.51;95174.34;5046484;28;20224;-60
2022/07/23 10:09:26;;;;;;;12.63;5.93;;;39.70;33.20;;;40.46;24.23;95174.19;5046107;28;20189;-62
2022/07/23 10:12:04;;;;;;;10.15;6.72;;;39.60;33.40;;;40.50;24.74;95166.91;5044288;28;20248;-60
2022/07/23 10:14:32;;;;;;;26.33;7.38;;;39.50;32.90;;;40.59;23.89;95166.88;5046522;28;20266;-58
2022/07/23 10:17:01;;;;;;;6.45;5.70;;;39.60;32.20;;;40.61;23.25;95164.63;5046399;28;20585;-59
2022/07/23 10:19:28;;;;;;;12.63;5.03;;;39.60;32.30;;;40.28;23.39;95159.53;5044868;28;20230;-58